»·PEaware :: N569RA KSMX-KBFL

N569RA :: KSMX-KBFL

FLIGHT INFORMATION

Flight Status: Arrived
Operator: Privately registered:
United States
More flights under this callsign
Pilot: Richard A. (15668)
Aircraft: CESSNA 172 SKYHAWK
(C172)
More flights by this aircraft type
Origin: KSMX Santa Maria Pub/Capt Hancock
United States
Destination: KBFL Meadows
United States
More flights between these airports :: More routes between these airports
Route:
File this flight plan on PilotEdge
Remarks: CAT-05
Altitude:
(Current/Filed)
7,500ft
Speed:
(Current/Filed)
140kts
Departed: 10-Jun-17 11:22 AM
Arrived: 10-Jun-17 12:06 PM
Distance/Time
Traveled:
0nm/0:44
Distance/Time
To Go:
Arrived

Flight Plot

Page will automatically refresh every two minutes.


Map Options




Map Legend


Flown Route
Filed Route
Departure Airport
Arrival Airport
Navaid (VOR, NDB)
Fix

Horizontal Profiles

Position Reports

Time Latitude Longitude Heading Altitude Ground
Speed
10-Jun-17 11:04 34.897423 -120.446749 170 265ft 0kts
10-Jun-17 11:05 34.897423 -120.446749 170 265ft 0kts
10-Jun-17 11:06 34.897423 -120.446749 170 265ft 0kts
10-Jun-17 11:07 34.897423 -120.446749 170 265ft 0kts
10-Jun-17 11:08 34.897423 -120.446748 170 265ft 0kts
10-Jun-17 11:09 34.897422 -120.446748 170 265ft 0kts
10-Jun-17 11:10 34.897422 -120.446748 170 265ft 0kts
10-Jun-17 11:11 34.897422 -120.446748 170 265ft 0kts
10-Jun-17 11:12 34.897422 -120.446748 170 265ft 0kts
10-Jun-17 11:13 34.897422 -120.446748 170 265ft 0kts
10-Jun-17 11:14 34.897422 -120.446748 170 265ft 0kts
10-Jun-17 11:15 34.897422 -120.446748 170 265ft 0kts
10-Jun-17 11:16 34.897422 -120.446748 170 265ft 0kts
10-Jun-17 11:17 34.897422 -120.446748 170 265ft 0kts
10-Jun-17 11:18 34.895524 -120.446567 135 265ft 12kts
10-Jun-17 11:19 34.893569 -120.444708 195 265ft 0kts
10-Jun-17 11:20 34.893090 -120.444919 207 265ft 0kts
10-Jun-17 11:21 34.893089 -120.444920 207 265ft 0kts
10-Jun-17 11:22 34.893089 -120.444920 207 265ft 0kts
10-Jun-17 11:23 34.892794 -120.445772 311 265ft 0kts
10-Jun-17 11:24 34.900715 -120.455203 312 547ft 76kts
10-Jun-17 11:25 34.918744 -120.451920 48 1286ft 104kts
10-Jun-17 11:26 34.927757 -120.417626 71 1997ft 119kts
10-Jun-17 11:27 34.935337 -120.378149 69 2535ft 114kts
10-Jun-17 11:28 34.943232 -120.343678 66 3300ft 105kts
10-Jun-17 11:29 34.951549 -120.310475 66 4074ft 101kts
10-Jun-17 11:30 34.960633 -120.279004 61 4850ft 97kts
10-Jun-17 11:31 34.969930 -120.248869 61 5631ft 96kts
10-Jun-17 11:32 34.980408 -120.218495 58 6342ft 103kts
10-Jun-17 11:33 34.992746 -120.185838 57 6937ft 108kts
10-Jun-17 11:34 35.005471 -120.152825 57 7523ft 107kts
10-Jun-17 11:35 35.020363 -120.115922 57 7520ft 127kts
10-Jun-17 11:36 35.035304 -120.080282 56 7518ft 127kts
10-Jun-17 11:37 35.051733 -120.042637 56 7517ft 126kts
10-Jun-17 11:38 35.068064 -120.005347 56 7516ft 125kts
10-Jun-17 11:39 35.084458 -119.967943 56 7517ft 125kts
10-Jun-17 11:40 35.100480 -119.931181 57 7517ft 126kts
10-Jun-17 11:41 35.115684 -119.893802 58 7519ft 127kts
10-Jun-17 11:42 35.131144 -119.855422 58 7519ft 127kts
10-Jun-17 11:43 35.146339 -119.817206 58 7519ft 126kts
10-Jun-17 11:44 35.161090 -119.779152 60 7518ft 126kts
10-Jun-17 11:45 35.175141 -119.740271 60 7519ft 125kts
10-Jun-17 11:46 35.189081 -119.701491 60 7525ft 125kts
10-Jun-17 11:47 35.202980 -119.662820 60 7530ft 125kts
10-Jun-17 11:48 35.217019 -119.623772 60 7416ft 128kts
10-Jun-17 11:49 35.231359 -119.584557 59 7027ft 126kts
10-Jun-17 11:50 35.246181 -119.546676 58 6643ft 126kts
10-Jun-17 11:51 35.261739 -119.508811 58 6254ft 125kts
10-Jun-17 11:52 35.277112 -119.470795 59 5863ft 125kts
10-Jun-17 11:53 35.291605 -119.432509 61 5472ft 125kts
10-Jun-17 11:54 35.305812 -119.393993 62 5078ft 124kts
10-Jun-17 11:55 35.319597 -119.355624 63 4686ft 124kts
10-Jun-17 11:56 35.332766 -119.318488 64 4304ft 124kts
10-Jun-17 11:57 35.346479 -119.280516 64 3910ft 123kts
10-Jun-17 11:58 35.360340 -119.242570 64 3511ft 127kts
10-Jun-17 11:59 35.374696 -119.202553 64 3117ft 129kts
10-Jun-17 12:00 35.389047 -119.162693 64 2720ft 129kts
10-Jun-17 12:01 35.403469 -119.122915 64 2322ft 128kts
10-Jun-17 12:02 35.416704 -119.085634 76 1908ft 102kts
10-Jun-17 12:03 35.403156 -119.062217 140 1596ft 84kts
10-Jun-17 12:04 35.390473 -119.043192 59 1389ft 66kts
10-Jun-17 12:05 35.402167 -119.024564 42 1377ft 71kts
10-Jun-17 12:06 35.414717 -119.033207 312 1223ft 57kts
10-Jun-17 12:07 35.425805 -119.046416 312 837ft 53kts
10-Jun-17 12:08 35.435530 -119.058229 338 488ft 22kts
10-Jun-17 12:09 35.436275 -119.057017 113 494ft 17kts
10-Jun-17 12:10 35.435438 -119.053584 136 500ft 1kts
10-Jun-17 12:11 35.435435 -119.053581 137 500ft 0kts
10-Jun-17 12:12 35.435435 -119.053581 137 500ft 0kts
10-Jun-17 12:13 35.435435 -119.053581 137 500ft 0kts
10-Jun-17 12:17 34.900563 -120.451318 228 265ft 0kts
10-Jun-17 12:18 34.900563 -120.451318 228 265ft 0kts
10-Jun-17 12:19 34.900563 -120.451318 228 265ft 0kts
10-Jun-17 12:20 34.900563 -120.451318 228 265ft 0kts
10-Jun-17 12:21 34.900563 -120.451318 228 265ft 0kts
10-Jun-17 12:22 34.900563 -120.451318 228 265ft 0kts

Navigation Log

Ident Type
1. KSMX Airport
2. KBFL Airport